Time;durP1;ratioP1;P1;durP2;ratioP2;P2;SDS_P1;SDS_P2;PMS_P1;PMS_P2;Temp;Humidity;BMP_temperature;BMP_pressure;BME280_temperature;BME280_humidity;BME280_pressure;Samples;Min_cycle;Max_cycle;Signal;HPM_P1;HPM_P2
2021/12/28 00:02:50;;;;;;;37.30;17.35;;;6.30;99.90;;;;;;6193619;23;20009;-94
2021/12/28 00:05:44;;;;;;;41.15;18.48;;;6.40;99.90;;;;;;6193513;23;20028;-93
2021/12/28 00:08:56;;;;;;;41.97;18.40;;;6.30;99.90;;;;;;6163345;23;20504;-93
2021/12/28 00:12:16;;;;;;;37.35;18.00;;;6.30;99.90;;;;;;6196058;23;20090;-94
2021/12/28 00:18:30;;;;;;;40.25;18.02;;;6.30;99.90;;;;;;6216845;23;20113;-93
2021/12/28 00:21:43;;;;;;;33.38;17.48;;;6.30;99.90;;;;;;6194960;23;20017;-94
2021/12/28 00:25:19;;;;;;;39.47;18.48;;;6.30;99.90;;;;;;6218144;23;20087;-94
2021/12/28 00:28:35;;;;;;;43.80;19.05;;;6.30;99.90;;;;;;6073481;23;20517;-94
2021/12/28 00:31:57;;;;;;;51.08;18.15;;;6.30;99.90;;;;;;6073789;23;20066;-94
2021/12/28 00:35:00;;;;;;;46.03;19.80;;;6.30;99.90;;;;;;6027615;23;20029;-94
2021/12/28 00:37:54;;;;;;;49.42;19.92;;;6.40;99.90;;;;;;6074202;23;20028;-93
2021/12/28 00:41:05;;;;;;;43.13;17.88;;;6.40;99.90;;;;;;6077954;23;20447;-94
2021/12/28 00:44:10;;;;;;;45.42;21.33;;;6.40;99.90;;;;;;6046780;23;20022;-93
2021/12/28 00:50:37;;;;;;;54.00;21.70;;;6.50;99.90;;;;;;6072476;23;20015;-93
2021/12/28 00:53:36;;;;;;;45.08;19.00;;;6.50;99.90;;;;;;6074311;23;20456;-93
2021/12/28 00:56:28;;;;;;;54.67;22.38;;;6.60;99.90;;;;;;6097944;23;20101;-94
2021/12/28 00:59:55;;;;;;;56.35;18.85;;;6.60;99.90;;;;;;6064393;23;20097;-94
2021/12/28 01:03:02;;;;;;;55.10;21.00;;;6.60;99.90;;;;;;6098882;23;20026;-91
2021/12/28 01:05:52;;;;;;;50.80;22.25;;;6.70;99.90;;;;;;6102407;23;20337;-94
2021/12/28 01:08:46;;;;;;;55.58;20.83;;;6.70;99.90;;;;;;6098981;23;20109;-94
2021/12/28 01:15:09;;;;;;;58.80;22.70;;;6.70;99.90;;;;;;6097793;23;20027;-94
2021/12/28 01:18:10;;;;;;;58.58;21.75;;;6.80;99.90;;;;;;6098811;23;20097;-94
2021/12/28 01:21:32;;;;;;;66.43;23.70;;;6.80;99.90;;;;;;6098223;23;20097;-93
2021/12/28 01:24:32;;;;;;;53.28;18.65;;;6.90;99.90;;;;;;6097352;23;20018;-94
2021/12/28 01:27:18;;;;;;;54.42;20.25;;;6.80;99.90;;;;;;6099958;23;20370;-94
2021/12/28 01:30:23;;;;;;;50.92;20.92;;;6.80;99.90;;;;;;6099571;23;20068;-93
2021/12/28 01:33:43;;;;;;;57.97;20.77;;;6.80;99.90;;;;;;6097454;23;20022;-94
2021/12/28 01:36:41;;;;;;;61.72;21.80;;;6.90;99.90;;;;;;6099659;23;20050;-94
2021/12/28 01:39:31;;;;;;;53.05;19.75;;;6.90;99.90;;;;;;6097796;23;20022;-93
2021/12/28 01:43:42;;;;;;;;;;;;;;;;;;;;;
2021/12/28 01:51:01;;;;;;;57.75;21.27;;;6.90;99.90;;;;;;6188151;23;20056;-93
2021/12/28 01:53:49;;;;;;;56.10;17.17;;;6.90;99.90;;;;;;6159372;23;20107;-93
2021/12/28 01:56:59;;;;;;;64.93;21.90;;;6.90;99.90;;;;;;6164728;23;20075;-93
2021/12/28 02:00:05;;;;;;;46.28;20.63;;;6.90;99.90;;;;;;6184564;23;20318;-93
2021/12/28 02:06:59;;;;;;;49.80;18.10;;;6.90;99.90;;;;;;6177123;23;20017;-94
2021/12/28 02:13:14;;;;;;;55.05;20.25;;;6.90;99.90;;;;;;6119562;23;20404;-93
2021/12/28 02:16:11;;;;;;;45.15;17.15;;;6.90;99.90;;;;;;6161361;23;20021;-93
2021/12/28 02:22:32;;;;;;;49.17;16.70;;;6.90;99.90;;;;;;6186420;23;20043;-93
2021/12/28 02:25:31;;;;;;;49.22;17.95;;;6.80;99.90;;;;;;6163602;23;20028;-94
2021/12/28 02:28:28;;;;;;;67.07;18.02;;;6.70;99.90;;;;;;6186493;23;20440;-93
2021/12/28 02:31:14;;;;;;;46.65;19.25;;;6.70;99.90;;;;;;6164981;23;20048;-92
2021/12/28 02:34:27;;;;;;;44.75;19.67;;;6.80;99.90;;;;;;6187194;23;20036;-93
2021/12/28 02:37:06;;;;;;;42.60;17.40;;;6.70;99.90;;;;;;6162704;23;20025;-93
2021/12/28 02:40:13;;;;;;;46.30;16.52;;;6.70;99.90;;;;;;6184897;23;20075;-94
2021/12/28 02:43:01;;;;;;;47.88;18.05;;;6.80;99.90;;;;;;6186140;23;20028;-94
2021/12/28 02:45:54;;;;;;;42.08;16.98;;;6.90;99.90;;;;;;6164842;23;20040;-93
2021/12/28 02:48:49;;;;;;;36.17;15.85;;;6.90;99.90;;;;;;6163920;23;20017;-93
2021/12/28 02:52:02;;;;;;;49.53;15.73;;;6.90;99.90;;;;;;6166822;23;20028;-93
2021/12/28 02:54:49;;;;;;;41.30;16.17;;;6.80;99.90;;;;;;6163383;23;20025;-94
2021/12/28 02:57:46;;;;;;;41.08;16.88;;;6.90;99.90;;;;;;6163336;23;20084;-93
2021/12/28 03:01:09;;;;;;;39.13;14.45;;;6.90;99.90;;;;;;6137474;23;20028;-95
2021/12/28 03:04:05;;;;;;;;;;;;;;;;;;;;;
2021/12/28 03:06:59;;;;;;;34.22;13.40;;;6.80;99.90;;;;;;6129932;23;20028;-93
2021/12/28 03:09:54;;;;;;;33.28;12.75;;;6.90;99.90;;;;;;6109570;23;20104;-93
2021/12/28 03:12:57;;;;;;;37.42;13.48;;;6.90;99.90;;;;;;6108532;23;20049;-93
2021/12/28 03:16:10;;;;;;;33.38;11.57;;;6.90;99.90;;;;;;6128257;23;20025;-94
2021/12/28 03:19:36;;;;;;;28.00;13.43;;;6.90;99.90;;;;;;6130707;23;20021;-94
2021/12/28 03:22:31;;;;;;;31.67;12.05;;;6.80;99.90;;;;;;6109133;23;20116;-94
2021/12/28 03:25:29;;;;;;;35.53;12.82;;;6.70;99.90;;;;;;6107169;23;20017;-93
2021/12/28 03:28:45;;;;;;;31.00;12.20;;;6.80;99.90;;;;;;6106438;23;20457;-93
2021/12/28 03:32:00;;;;;;;32.83;11.50;;;6.70;99.90;;;;;;6159741;23;20531;-94
2021/12/28 03:34:57;;;;;;;21.63;11.73;;;6.70;99.90;;;;;;6163913;23;20459;-94
2021/12/28 03:38:09;;;;;;;25.77;10.15;;;6.60;99.90;;;;;;6191096;23;20024;-93
2021/12/28 03:41:10;;;;;;;27.70;11.70;;;6.60;99.90;;;;;;6185047;23;20336;-94
2021/12/28 03:44:11;;;;;;;38.58;12.05;;;6.60;99.90;;;;;;6155266;23;20336;-94
2021/12/28 03:47:09;;;;;;;30.83;11.88;;;6.60;99.90;;;;;;6162510;23;20512;-93
2021/12/28 03:50:07;;;;;;;27.17;10.38;;;6.50;99.90;;;;;;6162439;23;20017;-94
2021/12/28 03:53:01;;;;;;;25.50;9.95;;;6.50;99.90;;;;;;6161614;23;20048;-94
2021/12/28 03:56:24;;;;;;;27.67;10.23;;;6.50;99.90;;;;;;6186733;23;20052;-93
2021/12/28 03:59:10;;;;;;;20.90;10.52;;;6.50;99.90;;;;;;6162103;23;20017;-94
2021/12/28 04:02:05;;;;;;;24.27;10.18;;;6.40;99.90;;;;;;6164849;23;20460;-93
2021/12/28 04:05:16;;;;;;;30.48;10.23;;;6.50;99.90;;;;;;6184810;23;20476;-93
2021/12/28 04:08:28;;;;;;;18.98;8.20;;;6.40;99.90;;;;;;6179741;23;20021;-93
2021/12/28 04:11:57;;;;;;;23.52;10.40;;;6.40;99.90;;;;;;6185609;23;20143;-94
2021/12/28 04:14:42;;;;;;;27.38;9.13;;;6.40;99.90;;;;;;6162648;23;20051;-94
2021/12/28 04:17:25;;;;;;;27.15;8.55;;;6.40;99.90;;;;;;6162269;23;20032;-93
2021/12/28 04:20:31;;;;;;;19.02;8.55;;;6.30;99.90;;;;;;6184944;23;20017;-93
2021/12/28 04:27:49;;;;;;;23.55;7.05;;;6.20;99.90;;;;;;6187318;23;20324;-94
2021/12/28 04:30:54;;;;;;;24.48;9.38;;;6.20;99.90;;;;;;6162233;23;20017;-93
2021/12/28 04:33:37;;;;;;;31.67;10.88;;;6.20;99.90;;;;;;6184201;23;20024;-94
2021/12/28 04:36:20;;;;;;;33.20;8.43;;;6.10;99.90;;;;;;6161020;23;20067;-93
2021/12/28 04:39:03;;;;;;;27.17;8.18;;;6.10;99.90;;;;;;6163052;23;20317;-93
2021/12/28 04:41:57;;;;;;;26.05;8.05;;;6.20;99.90;;;;;;6185038;23;20021;-93
2021/12/28 04:45:00;;;;;;;24.80;8.07;;;6.10;99.90;;;;;;6162576;23;20035;-94
2021/12/28 04:47:52;;;;;;;24.95;7.57;;;6.10;99.90;;;;;;6186055;23;20071;-95
2021/12/28 04:50:52;;;;;;;19.38;6.80;;;6.10;99.90;;;;;;6162451;23;20448;-94
2021/12/28 04:53:46;;;;;;;18.35;7.57;;;6.20;99.90;;;;;;6164144;23;20017;-93
2021/12/28 04:56:29;;;;;;;22.50;7.55;;;6.10;99.90;;;;;;6163259;23;20087;-93
2021/12/28 04:59:12;;;;;;;22.55;6.93;;;6.10;99.90;;;;;;6162910;23;20027;-94
2021/12/28 05:02:00;;;;;;;30.20;6.30;;;6.10;99.90;;;;;;6187041;23;20020;-93
2021/12/28 05:04:41;;;;;;;31.45;9.02;;;6.20;99.90;;;;;;6162219;23;20017;-92
2021/12/28 05:07:53;;;;;;;16.38;5.90;;;6.20;99.90;;;;;;6188244;23;20107;-93
2021/12/28 05:10:22;;;;;;;27.95;8.07;;;6.20;99.90;;;;;;6162002;23;20021;-94
2021/12/28 16:57:04;;;;;;;;;;;;;;;;;;;;;
2021/12/28 17:00:57;;;;;;;;;;;;;;;;;;;;;
2021/12/28 17:04:19;;;;;;;13.23;1.95;;;7.70;99.90;;;;;;6096687;23;20029;-91
2021/12/28 17:11:11;;;;;;;15.00;2.15;;;7.80;99.90;;;;;;6275211;22;20026;-90
2021/12/28 17:13:49;;;;;;;13.20;1.80;;;7.70;99.90;;;;;;6250747;22;20500;-91
2021/12/28 17:16:18;;;;;;;13.73;1.92;;;7.80;99.90;;;;;;6250009;22;20016;-91
2021/12/28 17:18:46;;;;;;;13.85;1.67;;;7.80;99.90;;;;;;6249615;22;20107;-89
2021/12/28 17:21:26;;;;;;;7.68;2.13;;;7.70;99.90;;;;;;6250592;22;20012;-91
2021/12/28 17:24:00;;;;;;;14.35;2.20;;;7.80;99.90;;;;;;6227130;22;20375;-92
2021/12/28 17:26:39;;;;;;;8.20;2.00;;;7.70;99.90;;;;;;6227967;22;20070;-90
2021/12/28 17:33:44;;;;;;;9.93;1.20;;;7.80;99.90;;;;;;6243705;22;20095;-91
2021/12/28 17:36:52;;;;;;;19.75;2.47;;;7.80;99.90;;;;;;6191409;22;20021;-91
2021/12/28 17:40:29;;;;;;;12.00;2.20;;;7.80;99.90;;;;;;6227870;22;20062;-93
2021/12/28 17:44:26;;;;;;;10.98;2.58;;;7.90;99.90;;;;;;6083381;22;20021;-92
2021/12/28 17:56:09;;;;;;;12.10;2.47;;;8.00;99.90;;;;;;5927953;24;20519;-93
2021/12/28 18:06:51;;;;;;;7.45;1.90;;;7.70;99.90;;;;;;6040437;23;20027;-89
2021/12/28 18:09:28;;;;;;;9.20;2.60;;;7.60;99.90;;;;;;6047972;23;20069;-90
2021/12/28 18:12:15;;;;;;;8.02;2.00;;;7.60;99.90;;;;;;6104146;23;20029;-92
2021/12/28 18:15:43;;;;;;;8.35;1.77;;;7.60;99.90;;;;;;6189834;23;20036;-93
2021/12/28 18:22:53;;;;;;;10.35;3.00;;;7.60;99.90;;;;;;6241832;22;20090;-91
2021/12/28 18:25:52;;;;;;;9.60;3.28;;;7.60;99.90;;;;;;6223490;23;20016;-93
2021/12/28 18:29:41;;;;;;;8.50;3.17;;;7.60;99.90;;;;;;6141107;23;20100;-93
2021/12/28 19:26:40;;;;;;;8.98;6.38;;;7.70;99.90;;;;;;6117778;23;20475;-91
2021/12/28 19:29:31;;;;;;;7.43;2.20;;;7.70;99.90;;;;;;6169620;23;20016;-91
2021/12/28 19:32:54;;;;;;;7.55;1.70;;;7.70;99.90;;;;;;6199379;23;20020;-90
2021/12/28 19:35:53;;;;;;;4.30;1.75;;;7.60;99.90;;;;;;6216579;23;20020;-92
2021/12/28 19:38:54;;;;;;;6.20;1.58;;;7.70;99.90;;;;;;6225642;23;20446;-90
2021/12/28 19:42:36;;;;;;;;;;;;;;;;;;;;;
2021/12/28 19:46:02;;;;;;;6.75;1.63;;;7.70;99.90;;;;;;6222256;23;20064;-91
2021/12/28 19:49:21;;;;;;;7.25;1.77;;;7.70;99.90;;;;;;6210106;23;20020;-91
2021/12/28 22:06:23;;;;;;;8.43;3.00;;;7.90;99.90;;;;;;6248324;23;20046;-92
2021/12/28 22:27:55;;;;;;;11.95;3.15;;;8.00;99.90;;;;;;6009792;23;20099;-92
2021/12/28 22:31:41;;;;;;;12.13;2.42;;;7.90;99.90;;;;;;6017523;23;20114;-92
2021/12/28 22:35:35;;;;;;;9.15;3.33;;;7.90;99.90;;;;;;5983823;23;20008;-93
2021/12/28 22:39:26;;;;;;;14.82;3.70;;;8.00;99.90;;;;;;5951470;24;20031;-92
2021/12/28 22:43:06;;;;;;;11.73;3.70;;;7.90;99.90;;;;;;5977609;23;20043;-91
2021/12/28 22:46:26;;;;;;;7.40;2.60;;;7.90;99.90;;;;;;5981024;23;20024;-91
2021/12/28 22:49:45;;;;;;;11.38;3.45;;;8.00;99.90;;;;;;5964229;24;20024;-92
2021/12/28 22:53:20;;;;;;;8.48;3.70;;;7.90;99.90;;;;;;6002305;23;20018;-92
2021/12/28 22:56:58;;;;;;;7.40;2.75;;;8.00;99.90;;;;;;6045622;23;20027;-92
2021/12/28 23:00:32;;;;;;;;;;;;;;;;;;;;;
2021/12/28 23:03:57;;;;;;;6.05;2.10;;;7.90;99.90;;;;;;5956880;23;20020;-93
2021/12/28 23:07:03;;;;;;;12.27;2.38;;;7.90;99.90;;;;;;6003498;23;20068;-93
2021/12/28 23:13:26;;;;;;;5.55;1.77;;;7.90;99.90;;;;;;6004933;23;20467;-92
2021/12/28 23:16:47;;;;;;;7.03;2.33;;;8.00;99.90;;;;;;6006015;23;20024;-92
2021/12/28 23:24:18;;;;;;;11.05;2.17;;;7.90;99.90;;;;;;6011239;23;20091;-92
2021/12/28 23:27:42;;;;;;;;;;;;;;;;;;;;;
2021/12/28 23:31:01;;;;;;;6.72;1.67;;;7.90;99.90;;;;;;6097123;23;20502;-93
2021/12/28 23:34:00;;;;;;;5.70;1.35;;;7.90;99.90;;;;;;6056387;23;20021;-93
2021/12/28 23:36:50;;;;;;;9.70;2.25;;;7.90;99.90;;;;;;6146556;23;20043;-92
2021/12/28 23:39:50;;;;;;;8.15;1.92;;;8.00;99.90;;;;;;6199614;23;20016;-92
2021/12/28 23:43:09;;;;;;;3.58;1.20;;;7.90;99.90;;;;;;6203135;23;20027;-92
2021/12/28 23:46:24;;;;;;;10.50;1.58;;;7.90;99.90;;;;;;6201344;23;20044;-93
2021/12/28 23:49:40;;;;;;;11.27;1.30;;;7.90;99.90;;;;;;6199981;23;20052;-92
2021/12/28 23:52:42;;;;;;;13.68;3.20;;;7.90;99.90;;;;;;6220798;23;20027;-91
2021/12/28 23:55:51;;;;;;;10.30;1.50;;;7.90;99.90;;;;;;6184230;23;20387;-92
2021/12/28 23:59:34;;;;;;;9.45;1.25;;;7.90;99.90;;;;;;6223458;23;20016;-92
